< < Back
Terminal Aerodrome Forecast


Current Version              Previous Versions:   1  2  3  4  5  6  7  8  9  

Terminal Aerodrome Forecast

555
FTUS44 KBMX 231724
TAFTCL
TAF
KTCL 231724Z 2318/2418 22006KT P6SM SCT050
     FM240200 00000KT P6SM SCT250=



Latest METAR

209
SAUS70 KWBC 232100 RRM
MTRTCL
METAR KTCL 232053Z 28007KT 230V300 10SM FEW043 BKN065 BKN085 33/24 A2994
RMK AO2 SLP136 T03330239 58021


USA.gov is the U.S. government's official web portal to all federal, state and local government web resources and services.